Aérodrome :
LOGIN :

S'inscrire | Disclaimer

   EN    FR    IT 

 










Légende :    VFR   VFR Marginal   IFR   IFR Intensif   IFR Très Intensif
Visi : 
Plafond : 
>= 8 km
>= 3000ft
5 à 8 km
1000 à 3000 ft
1500m à 5 km
500 à 1000 ft
800 à 1500m
200 à 500 ft
< 800m
< 200 ft
Symboles :   Orages  Brouillard  Fortes neiges  Fortes précipitations  Vent > 20 kt
SIGMETs :   Divers  Orages  Givrage  Turbulence  Onde Orograph.  Cendres Volcan.







- Altitude de l'aérodrome : 436 ft
- Code IATA : ANG
- Voir les cartes d'approche


LFBU - Angoulême Brie Champniers

DERNIER METAR :
  • 230000Z AUTO VRB02KT 5000 BR BKN004 OVC010 08/08 Q1027

METARs EXPIRÉS :
  • 222330Z AUTO 18003KT 5000 BR BKN004 OVC010 08/07 Q1027
  • 222300Z AUTO 19003KT 5000 BR OVC005 08/07 Q1027
  • 222230Z AUTO 22003KT 7000 OVC006 08/08 Q1027
  • 222200Z AUTO 18003KT 7000 OVC006 08/08 Q1027
  • 222130Z AUTO 25003KT 7000 OVC007 08/07 Q1027

TAF AMD TAF LFBU
Valide du 22 à 20h jusqu'au 23 à 18h UTC


222045Z 2220/2318 20005KT 5000 BR NSC
TEMPO 2220/2303 2000 BR BKN005
BECMG 2303/2305 BKN005
TEMPO 2306/2318 2000 DZRA BKN003 OVC005
Pas de NOTAMs connus pour ce terrain.
2 SIGMETs publiés pour la FIR Bordeaux (LFBB) :
 
Turbulence forte
LFBB SIGMET 7 VALID 230000/230400 LFPW
LFBB BORDEAUX FIR/UIR SEV TURB FCST SE OF LINE N4330 E00245 - N4230 E00200 SFC/FL060 STNR NC=
Onde orographique forte
LFBB SIGMET 6 VALID 222100/230100 LFPW
LFBB BORDEAUX FIR/UIR SEV MTW FCST SE OF LINE N4330 E00245 - N4230 E00145 SFC/FL280 STNR WKN=



MET'MAP, la Météo Aéronautique d'un coup d'oeil ! - Copyright ORBIFLY Décembre 2007 - Disclaimer

ORBIFLY MET'MAP TEAM :

Programmation & Développement : Alexandra Zaïnal
Conception & Développement : Baudouin d'Aumeries
Co-Programmation & Développement : Marc-Olivier Méhu
Soutien technique & logistique : Manuel Goepfert

Contact : metmap@orbifly.com




SOURCES & CREDITS :

   NOAA